createdAt,value
2023-03-24T00:00:04.564Z,0.00
2023-03-24T00:01:04.548Z,0.00
2023-03-24T00:02:04.544Z,0.00
2023-03-24T00:03:04.541Z,0.00
2023-03-24T00:04:04.506Z,0.00
2023-03-24T00:05:04.445Z,0.00
2023-03-24T00:06:04.429Z,0.00
2023-03-24T00:07:04.390Z,0.00
2023-03-24T00:08:04.749Z,0.00
2023-03-24T00:09:04.347Z,0.00
2023-03-24T00:10:04.321Z,0.00
2023-03-24T00:11:04.301Z,0.00
2023-03-24T00:12:04.271Z,0.00
2023-03-24T00:13:04.263Z,0.00
2023-03-24T00:14:04.223Z,0.00
2023-03-24T00:15:04.199Z,0.00
2023-03-24T00:16:04.190Z,0.00
2023-03-24T00:17:04.148Z,0.00
2023-03-24T00:18:04.177Z,0.00
2023-03-24T00:19:04.098Z,0.00
2023-03-24T00:20:04.091Z,0.00
2023-03-24T00:21:04.049Z,0.00
2023-03-24T00:22:04.033Z,0.00
2023-03-24T00:23:04.009Z,0.00
2023-03-24T00:24:03.988Z,0.00
2023-03-24T00:25:03.951Z,0.00
2023-03-24T00:26:03.926Z,0.00
2023-03-24T00:27:03.899Z,0.00
2023-03-24T00:28:03.878Z,0.00
2023-03-24T00:29:03.866Z,0.00
2023-03-24T00:30:03.834Z,0.00
2023-03-24T00:31:03.823Z,0.00
2023-03-24T00:32:03.780Z,0.00
2023-03-24T00:33:03.773Z,0.00
2023-03-24T00:34:03.732Z,0.00
2023-03-24T00:35:03.706Z,0.00
2023-03-24T00:36:03.736Z,0.00
2023-03-24T00:37:03.658Z,0.00
2023-03-24T00:38:03.638Z,0.00
2023-03-24T00:39:04.024Z,0.00
2023-03-24T00:40:03.585Z,0.00
2023-03-24T00:41:03.559Z,0.00
2023-03-24T00:42:03.547Z,0.00
2023-03-24T00:43:03.515Z,0.00
2023-03-24T00:44:03.545Z,0.00
2023-03-24T00:45:03.464Z,0.00
2023-03-24T00:46:03.442Z,0.00
2023-03-24T00:47:03.483Z,0.00
2023-03-24T00:48:03.456Z,0.00
2023-03-24T00:49:03.373Z,0.00
2023-03-24T00:50:03.343Z,0.00
2023-03-24T00:51:03.318Z,0.00
2023-03-24T00:52:03.311Z,0.00
2023-03-24T00:53:03.273Z,0.00
2023-03-24T00:54:03.255Z,0.00
2023-03-24T00:55:03.215Z,0.00
2023-03-24T00:56:03.193Z,0.00
2023-03-24T00:57:03.265Z,0.00
2023-03-24T00:58:03.149Z,0.00
2023-03-24T00:59:03.164Z,0.00
2023-03-24T01:00:03.095Z,0.00
2023-03-24T01:01:03.097Z,0.00
2023-03-24T01:02:03.060Z,0.00
2023-03-24T01:03:03.069Z,0.00
2023-03-24T01:04:02.997Z,0.00
2023-03-24T01:05:02.977Z,0.00
2023-03-24T01:06:04.357Z,0.00
2023-03-24T01:07:02.921Z,0.00
2023-03-24T01:08:02.921Z,0.00
2023-03-24T01:09:02.877Z,0.00
2023-03-24T01:10:02.848Z,0.00
2023-03-24T01:11:02.822Z,0.00
2023-03-24T01:12:02.798Z,0.00
2023-03-24T01:13:02.774Z,0.00
2023-03-24T01:14:02.766Z,0.00
2023-03-24T01:15:02.729Z,0.00
2023-03-24T01:16:02.770Z,0.00
2023-03-24T01:17:02.675Z,0.00
2023-03-24T01:18:02.713Z,0.00
2023-03-24T01:19:02.625Z,0.00
2023-03-24T01:20:02.599Z,0.00
2023-03-24T01:21:02.580Z,0.00
2023-03-24T01:22:02.581Z,0.00
2023-03-24T01:23:02.524Z,0.00
2023-03-24T01:24:02.519Z,0.00
2023-03-24T01:25:02.477Z,0.00
2023-03-24T01:26:02.450Z,0.00
2023-03-24T01:27:02.430Z,0.00
2023-03-24T01:28:02.405Z,0.00
2023-03-24T01:29:02.382Z,0.00
2023-03-24T01:30:02.350Z,0.00
2023-03-24T01:31:02.329Z,0.00
2023-03-24T01:32:02.354Z,0.00
2023-03-24T01:33:02.324Z,0.00
2023-03-24T01:34:02.258Z,0.00
2023-03-24T01:35:02.231Z,0.00
2023-03-24T01:36:02.235Z,0.00
2023-03-24T01:37:02.192Z,0.00
2023-03-24T01:38:02.156Z,0.00
2023-03-24T01:39:02.176Z,0.00
2023-03-24T01:40:02.136Z,0.00
2023-03-24T01:41:02.088Z,0.00
2023-03-24T01:42:02.069Z,0.00
2023-03-24T01:43:02.039Z,0.00
2023-03-24T01:44:02.016Z,0.00
2023-03-24T01:45:01.983Z,0.00
2023-03-24T01:46:02.009Z,0.00
2023-03-24T01:47:01.939Z,0.00
2023-03-24T01:48:01.957Z,0.00
2023-03-24T01:49:01.888Z,0.00
2023-03-24T01:50:01.873Z,0.00
2023-03-24T01:51:01.847Z,0.00
2023-03-24T01:52:01.818Z,0.00
2023-03-24T01:53:01.789Z,0.00
2023-03-24T01:54:01.775Z,0.00
2023-03-24T01:55:01.762Z,0.00
2023-03-24T01:56:01.744Z,0.00
2023-03-24T01:57:01.731Z,0.00
2023-03-24T01:58:01.688Z,0.00
2023-03-24T01:59:01.659Z,0.00
2023-03-24T02:00:01.639Z,0.00
2023-03-24T02:01:01.625Z,0.00
2023-03-24T02:02:01.568Z,0.00
2023-03-24T02:03:01.565Z,0.00
2023-03-24T02:04:01.585Z,0.00
2023-03-24T02:05:01.497Z,0.00
2023-03-24T02:06:01.477Z,0.00
2023-03-24T02:07:01.450Z,0.00
2023-03-24T02:08:01.421Z,0.00
2023-03-24T02:09:01.472Z,0.00
2023-03-24T02:10:01.373Z,0.00
2023-03-24T02:11:01.354Z,0.00
2023-03-24T02:12:01.408Z,0.00
2023-03-24T02:13:01.306Z,0.00
2023-03-24T02:14:01.276Z,0.00
2023-03-24T02:15:01.251Z,0.00
2023-03-24T02:16:01.296Z,0.00
2023-03-24T02:17:01.204Z,0.00
2023-03-24T02:18:01.238Z,0.00
2023-03-24T02:19:01.163Z,0.00
2023-03-24T02:20:01.134Z,0.00
2023-03-24T02:21:01.113Z,0.00
2023-03-24T02:22:01.086Z,0.00
2023-03-24T02:23:01.068Z,0.00
2023-03-24T02:24:01.035Z,0.00
2023-03-24T02:25:01.010Z,0.00
2023-03-24T02:26:00.986Z,0.00
2023-03-24T02:27:00.964Z,0.00
2023-03-24T02:28:00.963Z,0.00
2023-03-24T02:29:00.924Z,0.00
2023-03-24T02:30:00.926Z,0.00
2023-03-24T02:31:00.867Z,0.00
2023-03-24T02:32:00.889Z,0.00
2023-03-24T02:33:00.936Z,0.00
2023-03-24T02:34:00.803Z,0.00
2023-03-24T02:35:00.776Z,0.00
2023-03-24T02:36:00.756Z,0.00
2023-03-24T02:37:00.718Z,0.00
2023-03-24T02:38:00.713Z,0.00
2023-03-24T02:39:00.675Z,0.00
2023-03-24T02:40:00.671Z,0.00
2023-03-24T02:41:00.628Z,0.00
2023-03-24T02:42:00.601Z,0.00
2023-03-24T02:43:00.577Z,0.00
2023-03-24T02:44:00.570Z,0.00
2023-03-24T02:45:00.523Z,0.00
2023-03-24T02:46:00.546Z,0.00
2023-03-24T02:47:00.474Z,0.00
2023-03-24T02:48:00.597Z,0.00
2023-03-24T02:49:00.426Z,0.00
2023-03-24T02:50:00.426Z,0.00
2023-03-24T02:51:00.487Z,0.00
2023-03-24T02:52:00.349Z,0.00
2023-03-24T02:53:00.330Z,0.00
2023-03-24T02:54:00.307Z,0.00
2023-03-24T02:55:00.279Z,0.00
2023-03-24T02:56:00.265Z,0.00
2023-03-24T02:57:00.311Z,0.00
2023-03-24T02:58:00.207Z,0.00
2023-03-24T02:59:00.184Z,0.00
2023-03-24T03:00:00.173Z,0.00
2023-03-24T03:01:00.193Z,0.00
2023-03-24T03:02:00.114Z,0.00
2023-03-24T03:03:00.195Z,0.00
2023-03-24T03:04:00.157Z,0.00
2023-03-24T03:05:00.045Z,0.00
2023-03-24T03:06:00.009Z,0.00
2023-03-24T03:07:00.028Z,0.00
2023-03-24T03:07:59.960Z,0.00
2023-03-24T03:08:59.938Z,0.00
2023-03-24T03:09:59.909Z,0.00
2023-03-24T03:10:59.886Z,0.00
2023-03-24T03:11:59.860Z,0.00
2023-03-24T03:12:59.838Z,0.00
2023-03-24T03:13:59.816Z,0.00
2023-03-24T03:14:59.790Z,0.00
2023-03-24T03:15:59.814Z,0.00
2023-03-24T03:16:59.761Z,0.00
2023-03-24T03:17:59.734Z,0.00
2023-03-24T03:18:59.703Z,0.00
2023-03-24T03:19:59.667Z,0.00
2023-03-24T03:20:59.652Z,0.00
2023-03-24T03:21:59.618Z,0.00
2023-03-24T03:22:59.594Z,0.00
2023-03-24T03:23:59.571Z,0.00
2023-03-24T03:24:59.547Z,0.00
2023-03-24T03:25:59.524Z,0.00
2023-03-24T03:26:59.501Z,0.00
2023-03-24T03:27:59.477Z,0.00
2023-03-24T03:28:59.460Z,0.00
2023-03-24T03:29:59.428Z,0.00
2023-03-24T03:30:59.416Z,0.00
2023-03-24T03:31:59.391Z,0.00
2023-03-24T03:32:59.384Z,0.00
2023-03-24T03:33:59.332Z,0.00
2023-03-24T03:34:59.313Z,0.00
2023-03-24T03:35:59.307Z,0.00
2023-03-24T03:36:59.258Z,0.00
2023-03-24T03:37:59.233Z,0.00
2023-03-24T03:38:59.213Z,0.00
2023-03-24T03:39:59.184Z,0.00
2023-03-24T03:40:59.167Z,0.00
2023-03-24T03:41:59.144Z,0.00
2023-03-24T03:42:59.114Z,0.00
2023-03-24T03:43:59.093Z,0.00
2023-03-24T03:44:59.070Z,0.00
2023-03-24T03:45:59.062Z,0.00
2023-03-24T03:46:59.017Z,0.00
2023-03-24T03:47:59.043Z,0.00
2023-03-24T03:48:58.970Z,0.00
2023-03-24T03:49:58.963Z,0.00
2023-03-24T03:51:12.391Z,0.00
2023-03-24T03:51:58.912Z,0.00
2023-03-24T03:52:58.880Z,0.00
2023-03-24T03:53:58.849Z,0.00
2023-03-24T03:54:58.833Z,0.00
2023-03-24T03:55:58.797Z,0.00
2023-03-24T03:56:58.778Z,0.00
2023-03-24T03:57:58.750Z,0.00
2023-03-24T03:58:58.725Z,0.00
2023-03-24T03:59:58.706Z,0.00
2023-03-24T04:00:58.679Z,0.00
2023-03-24T04:01:58.729Z,0.00
2023-03-24T04:02:58.712Z,0.00
2023-03-24T04:03:58.660Z,0.00
2023-03-24T04:05:05.933Z,0.00
2023-03-24T04:05:58.553Z,0.00
2023-03-24T04:06:58.531Z,0.00
2023-03-24T04:07:58.505Z,0.00
2023-03-24T04:08:58.484Z,0.00
2023-03-24T04:09:58.456Z,0.00
2023-03-24T04:10:58.443Z,0.00
2023-03-24T04:11:58.410Z,0.00
2023-03-24T04:12:58.392Z,0.00
2023-03-24T04:13:58.363Z,0.00
2023-03-24T04:14:58.349Z,0.00
2023-03-24T04:15:58.358Z,0.00
2023-03-24T04:16:58.302Z,0.00
2023-03-24T04:17:58.338Z,0.00
2023-03-24T04:18:58.250Z,0.00
2023-03-24T04:19:58.242Z,0.00
2023-03-24T04:20:58.235Z,0.00
2023-03-24T04:21:58.175Z,0.00
2023-03-24T04:22:58.146Z,0.00
2023-03-24T04:23:58.121Z,0.00
2023-03-24T04:24:58.100Z,0.00
2023-03-24T04:25:58.075Z,0.00
2023-03-24T04:26:58.055Z,0.00
2023-03-24T04:27:58.026Z,0.00
2023-03-24T04:28:58.005Z,0.00
2023-03-24T04:29:57.979Z,0.00
2023-03-24T04:30:57.981Z,0.00
2023-03-24T04:31:57.936Z,0.00
2023-03-24T04:32:57.959Z,0.00
2023-03-24T04:33:57.891Z,0.00
2023-03-24T04:34:57.860Z,0.00
2023-03-24T04:35:57.879Z,0.00
2023-03-24T04:36:57.808Z,0.00
2023-03-24T04:37:57.783Z,0.00
2023-03-24T04:38:57.768Z,0.00
2023-03-24T04:39:57.736Z,0.00
2023-03-24T04:40:57.714Z,0.00
2023-03-24T04:41:57.687Z,0.00
2023-03-24T04:42:57.670Z,0.00
2023-03-24T04:43:57.660Z,0.00
2023-03-24T04:44:57.636Z,0.00
2023-03-24T04:45:57.796Z,0.00
2023-03-24T04:46:57.577Z,0.00
2023-03-24T04:47:57.620Z,0.00
2023-03-24T04:48:57.526Z,0.00
2023-03-24T04:49:57.495Z,0.00
2023-03-24T04:50:57.493Z,0.00
2023-03-24T04:51:57.492Z,0.00
2023-03-24T04:52:57.452Z,0.00
2023-03-24T04:53:57.423Z,0.00
2023-03-24T04:54:57.377Z,0.00
2023-03-24T04:55:57.357Z,0.00
2023-03-24T04:56:57.357Z,0.00
2023-03-24T04:57:57.304Z,0.00
2023-03-24T04:58:57.286Z,0.00
2023-03-24T04:59:57.259Z,0.00
2023-03-24T05:00:57.263Z,0.00
2023-03-24T05:01:57.208Z,0.00
2023-03-24T05:02:57.202Z,0.00
2023-03-24T05:03:57.180Z,0.00
2023-03-24T05:04:57.141Z,0.00
2023-03-24T05:05:57.114Z,0.00
2023-03-24T05:06:57.089Z,0.00
2023-03-24T05:07:57.084Z,0.00
2023-03-24T05:08:57.040Z,0.00
2023-03-24T05:09:57.019Z,0.00
2023-03-24T05:10:56.994Z,0.00
2023-03-24T05:11:56.968Z,0.00
2023-03-24T05:12:56.952Z,0.00
2023-03-24T05:13:56.920Z,0.00
2023-03-24T05:14:56.896Z,0.00
2023-03-24T05:15:56.865Z,0.00
2023-03-24T05:16:56.845Z,0.00
2023-03-24T05:17:56.886Z,0.00
2023-03-24T05:18:56.799Z,0.00
2023-03-24T05:19:56.778Z,4.00
2023-03-24T05:20:56.748Z,0.00
2023-03-24T05:21:56.720Z,0.00
2023-03-24T05:22:56.698Z,0.00
2023-03-24T05:23:56.706Z,4.00
2023-03-24T05:24:56.650Z,4.00
2023-03-24T05:25:56.627Z,4.00
2023-03-24T05:26:56.608Z,8.00
2023-03-24T05:27:56.574Z,4.00
2023-03-24T05:28:56.586Z,4.00
2023-03-24T05:29:56.521Z,8.00
2023-03-24T05:30:56.538Z,4.00
2023-03-24T05:31:56.474Z,8.00
2023-03-24T05:32:56.499Z,8.00
2023-03-24T05:33:56.425Z,8.00
2023-03-24T05:34:56.405Z,12.00
2023-03-24T05:35:56.394Z,12.00
2023-03-24T05:36:56.352Z,12.00
2023-03-24T05:37:56.323Z,12.00
2023-03-24T05:38:56.315Z,12.00
2023-03-24T05:39:56.293Z,16.00
2023-03-24T05:40:56.254Z,12.00
2023-03-24T05:41:56.229Z,12.00
2023-03-24T05:42:56.209Z,12.00
2023-03-24T05:43:56.178Z,8.00
2023-03-24T05:44:56.160Z,8.00
2023-03-24T05:45:56.172Z,12.00
2023-03-24T05:46:56.117Z,8.00
2023-03-24T05:47:56.154Z,8.00
2023-03-24T05:48:56.057Z,12.00
2023-03-24T05:49:56.040Z,12.00
2023-03-24T05:50:56.009Z,12.00
2023-03-24T05:51:55.988Z,8.00
2023-03-24T05:52:55.960Z,8.00
2023-03-24T05:53:55.934Z,8.00
2023-03-24T05:54:55.911Z,8.00
2023-03-24T05:55:55.904Z,12.00
2023-03-24T05:56:55.875Z,12.00
2023-03-24T05:57:55.835Z,12.00
2023-03-24T05:58:55.821Z,12.00
2023-03-24T05:59:55.788Z,16.00
2023-03-24T06:00:55.760Z,16.00
2023-03-24T06:01:55.733Z,12.00
2023-03-24T06:02:55.858Z,12.00
2023-03-24T06:03:55.799Z,16.00
2023-03-24T06:04:55.662Z,16.00
2023-03-24T06:05:55.636Z,16.00
2023-03-24T06:06:55.612Z,20.00
2023-03-24T06:07:55.588Z,32.00
2023-03-24T06:08:55.563Z,28.00
2023-03-24T06:09:55.537Z,20.00
2023-03-24T06:10:55.514Z,24.00
2023-03-24T06:11:55.504Z,24.00
2023-03-24T06:12:55.465Z,24.00
2023-03-24T06:13:55.437Z,32.00
2023-03-24T06:14:55.410Z,36.00
2023-03-24T06:15:55.453Z,48.00
2023-03-24T06:16:55.364Z,72.00
2023-03-24T06:17:55.418Z,64.00
2023-03-24T06:18:55.316Z,68.00
2023-03-24T06:19:55.333Z,80.00
2023-03-24T06:20:55.263Z,80.00
2023-03-24T06:21:55.238Z,92.00
2023-03-24T06:22:55.210Z,88.00
2023-03-24T06:23:55.188Z,84.00
2023-03-24T06:24:55.159Z,92.00
2023-03-24T06:25:55.142Z,88.00
2023-03-24T06:26:55.111Z,80.00
2023-03-24T06:27:55.102Z,84.00
2023-03-24T06:28:55.063Z,64.00
2023-03-24T06:29:55.040Z,56.00
2023-03-24T06:30:55.066Z,60.00
2023-03-24T06:31:54.987Z,56.00
2023-03-24T06:32:55.034Z,52.00
2023-03-24T06:33:54.949Z,72.00
2023-03-24T06:34:54.916Z,72.00
2023-03-24T06:35:54.936Z,80.00
2023-03-24T06:36:54.860Z,56.00
2023-03-24T06:37:54.890Z,92.00
2023-03-24T06:38:54.818Z,80.00
2023-03-24T06:39:54.790Z,100.00
2023-03-24T06:40:54.766Z,88.00
2023-03-24T06:41:54.738Z,100.00
2023-03-24T06:42:54.716Z,96.00
2023-03-24T06:43:54.740Z,100.00
2023-03-24T06:44:54.664Z,80.00
2023-03-24T06:45:54.649Z,100.00
2023-03-24T06:46:54.682Z,88.00
2023-03-24T06:47:54.647Z,100.00
2023-03-24T06:48:54.564Z,100.00
2023-03-24T06:49:54.568Z,108.00
2023-03-24T06:50:54.510Z,116.00
2023-03-24T06:51:54.487Z,112.00
2023-03-24T06:52:54.459Z,116.00
2023-03-24T06:53:54.439Z,132.00
2023-03-24T06:54:54.410Z,132.00
2023-03-24T06:55:54.388Z,120.00
2023-03-24T06:56:54.420Z,136.00
2023-03-24T06:57:54.352Z,132.00
2023-03-24T06:58:54.352Z,140.00
2023-03-24T06:59:54.367Z,144.00
2023-03-24T07:00:54.289Z,132.00
2023-03-24T07:01:54.277Z,148.00
2023-03-24T07:02:54.275Z,160.00
2023-03-24T07:03:54.237Z,172.00
2023-03-24T07:04:54.232Z,172.00
2023-03-24T07:05:54.206Z,160.00
2023-03-24T07:07:10.812Z,176.00
2023-03-24T07:08:29.749Z,160.00
2023-03-24T07:08:54.064Z,164.00
2023-03-24T07:09:54.040Z,184.00
2023-03-24T07:10:54.016Z,168.00
2023-03-24T07:11:53.994Z,164.00
2023-03-24T07:12:53.967Z,160.00
2023-03-24T07:13:53.947Z,184.00
2023-03-24T07:14:53.925Z,192.00
2023-03-24T07:15:54.045Z,216.00
2023-03-24T07:16:53.868Z,220.00
2023-03-24T07:17:53.864Z,196.00
2023-03-24T07:18:53.821Z,248.00
2023-03-24T07:19:53.796Z,200.00
2023-03-24T07:20:53.776Z,200.00
2023-03-24T07:21:53.747Z,192.00
2023-03-24T07:22:53.720Z,224.00
2023-03-24T07:23:53.706Z,180.00
2023-03-24T07:24:54.518Z,212.00
2023-03-24T07:25:53.647Z,208.00
2023-03-24T07:26:53.622Z,196.00
2023-03-24T07:27:53.596Z,196.00
2023-03-24T07:28:53.584Z,208.00
2023-03-24T07:29:53.556Z,216.00
2023-03-24T07:30:55.342Z,264.00
2023-03-24T07:31:53.591Z,248.00
2023-03-24T07:32:53.592Z,248.00
2023-03-24T07:33:53.451Z,236.00
2023-03-24T07:34:53.423Z,236.00
2023-03-24T07:35:53.445Z,276.00
2023-03-24T07:36:53.371Z,232.00
2023-03-24T07:37:53.413Z,228.00
2023-03-24T07:38:53.340Z,232.00
2023-03-24T07:39:53.302Z,248.00
2023-03-24T07:40:53.337Z,228.00
2023-03-24T07:41:53.256Z,180.00
2023-03-24T07:42:53.227Z,248.00
2023-03-24T07:43:53.209Z,292.00
2023-03-24T07:44:53.191Z,292.00
2023-03-24T07:45:53.195Z,312.00
2023-03-24T07:46:53.134Z,216.00
2023-03-24T07:47:53.154Z,284.00
2023-03-24T07:48:53.078Z,268.00
2023-03-24T07:49:53.058Z,332.00
2023-03-24T07:50:53.044Z,300.00
2023-03-24T07:51:53.019Z,316.00
2023-03-24T07:52:52.990Z,340.00
2023-03-24T07:53:52.959Z,292.00
2023-03-24T07:54:52.937Z,272.00
2023-03-24T07:55:53.034Z,240.00
2023-03-24T07:56:52.981Z,280.00
2023-03-24T07:57:52.868Z,248.00
2023-03-24T07:58:52.851Z,220.00
2023-03-24T07:59:52.817Z,224.00
2023-03-24T08:00:52.787Z,240.00
2023-03-24T08:01:56.669Z,268.00
2023-03-24T08:02:52.929Z,200.00
2023-03-24T08:03:53.022Z,256.00
2023-03-24T08:04:52.888Z,264.00
2023-03-24T08:05:52.833Z,248.00
2023-03-24T08:06:52.639Z,280.00
2023-03-24T08:07:52.643Z,280.00
2023-03-24T08:08:52.597Z,296.00
2023-03-24T08:09:52.570Z,320.00
2023-03-24T08:10:52.548Z,316.00
2023-03-24T08:11:52.539Z,336.00
2023-03-24T08:12:52.555Z,296.00
2023-03-24T08:13:52.472Z,328.00
2023-03-24T08:14:52.453Z,276.00
2023-03-24T08:15:52.429Z,280.00
2023-03-24T08:16:52.408Z,300.00
2023-03-24T08:17:52.424Z,316.00
2023-03-24T08:18:52.449Z,304.00
2023-03-24T08:20:00.197Z,324.00
2023-03-24T08:20:52.297Z,372.00
2023-03-24T08:21:52.273Z,404.00
2023-03-24T08:22:52.247Z,304.00
2023-03-24T08:23:52.221Z,300.00
2023-03-24T08:24:52.212Z,364.00
2023-03-24T08:25:52.176Z,264.00
2023-03-24T08:26:52.148Z,388.00
2023-03-24T08:27:52.143Z,372.00
2023-03-24T08:28:52.100Z,372.00
2023-03-24T08:29:52.081Z,428.00
2023-03-24T08:30:52.078Z,420.00
2023-03-24T08:31:52.029Z,332.00
2023-03-24T08:32:52.081Z,472.00
2023-03-24T08:33:51.982Z,372.00
2023-03-24T08:34:51.958Z,352.00
2023-03-24T08:35:52.177Z,404.00
2023-03-24T08:36:51.904Z,360.00
2023-03-24T08:37:51.882Z,284.00
2023-03-24T08:38:51.862Z,388.00
2023-03-24T08:39:51.834Z,404.00
2023-03-24T08:40:51.808Z,424.00
2023-03-24T08:41:51.784Z,380.00
2023-03-24T08:42:51.760Z,288.00
2023-03-24T08:43:51.736Z,352.00
2023-03-24T08:44:51.708Z,400.00
2023-03-24T08:45:51.734Z,324.00
2023-03-24T08:46:51.744Z,308.00
2023-03-24T08:47:51.657Z,412.00
2023-03-24T08:48:51.611Z,296.00
2023-03-24T08:49:51.586Z,260.00
2023-03-24T08:50:51.560Z,328.00
2023-03-24T08:51:51.561Z,316.00
2023-03-24T08:52:51.527Z,224.00
2023-03-24T08:53:51.492Z,216.00
2023-03-24T08:54:51.462Z,244.00
2023-03-24T08:55:51.442Z,252.00
2023-03-24T08:56:51.452Z,204.00
2023-03-24T08:57:51.395Z,224.00
2023-03-24T08:58:51.395Z,232.00
2023-03-24T08:59:51.655Z,252.00
2023-03-24T09:00:51.316Z,296.00
2023-03-24T09:01:51.348Z,268.00
2023-03-24T09:02:51.306Z,260.00
2023-03-24T09:03:51.253Z,252.00
2023-03-24T09:04:51.261Z,292.00
2023-03-24T09:05:51.251Z,260.00
2023-03-24T09:06:51.179Z,292.00
2023-03-24T09:07:51.189Z,320.00
2023-03-24T09:08:51.124Z,296.00
2023-03-24T09:09:51.096Z,248.00
2023-03-24T09:10:51.099Z,268.00
2023-03-24T09:11:51.053Z,224.00
2023-03-24T09:12:51.019Z,312.00
2023-03-24T09:13:50.998Z,400.00
2023-03-24T09:14:51.023Z,296.00
2023-03-24T09:15:51.341Z,344.00
2023-03-24T09:16:50.931Z,264.00
2023-03-24T09:17:50.943Z,240.00
2023-03-24T09:18:50.882Z,384.00
2023-03-24T09:19:50.859Z,340.00
2023-03-24T09:20:50.953Z,444.00
2023-03-24T09:21:50.808Z,448.00
2023-03-24T09:22:50.783Z,432.00
2023-03-24T09:23:50.775Z,296.00
2023-03-24T09:24:50.732Z,392.00
2023-03-24T09:25:50.896Z,496.00
2023-03-24T09:26:50.697Z,364.00
2023-03-24T09:27:50.659Z,416.00
2023-03-24T09:28:50.635Z,388.00
2023-03-24T09:29:50.617Z,376.00
2023-03-24T09:30:50.851Z,348.00
2023-03-24T09:31:50.601Z,280.00
2023-03-24T09:32:50.594Z,276.00
2023-03-24T09:33:50.518Z,248.00
2023-03-24T09:34:50.505Z,188.00
2023-03-24T09:35:50.481Z,192.00
2023-03-24T09:36:50.453Z,268.00
2023-03-24T09:37:50.420Z,224.00
2023-03-24T09:38:50.399Z,212.00
2023-03-24T09:39:50.391Z,248.00
2023-03-24T09:40:50.351Z,240.00
2023-03-24T09:41:50.326Z,228.00
2023-03-24T09:42:50.366Z,212.00
2023-03-24T09:43:50.279Z,192.00
2023-03-24T09:44:50.635Z,192.00
2023-03-24T09:45:50.406Z,160.00
2023-03-24T09:46:50.356Z,196.00
2023-03-24T09:47:50.249Z,212.00
2023-03-24T09:48:50.159Z,532.00
2023-03-24T09:49:50.135Z,700.00
2023-03-24T09:50:50.109Z,948.00
2023-03-24T09:51:50.093Z,1044.00
2023-03-24T09:52:50.069Z,508.00
2023-03-24T09:53:50.048Z,468.00
2023-03-24T09:54:50.106Z,364.00
2023-03-24T09:55:50.170Z,452.00
2023-03-24T09:56:51.789Z,540.00
2023-03-24T09:57:49.949Z,688.00
2023-03-24T09:58:49.930Z,1528.00
2023-03-24T09:59:49.904Z,544.00
2023-03-24T10:00:50.094Z,360.00
2023-03-24T10:01:49.855Z,344.00
2023-03-24T10:02:51.915Z,396.00
2023-03-24T10:03:49.859Z,356.00
2023-03-24T10:04:49.786Z,268.00
2023-03-24T10:05:50.002Z,240.00
2023-03-24T10:06:49.734Z,256.00
2023-03-24T10:07:49.712Z,244.00
2023-03-24T10:08:49.694Z,244.00
2023-03-24T10:09:49.669Z,348.00
2023-03-24T10:10:49.837Z,360.00
2023-03-24T10:11:49.637Z,608.00
2023-03-24T10:12:49.619Z,684.00
2023-03-24T10:13:49.571Z,600.00
2023-03-24T10:14:49.553Z,528.00
2023-03-24T10:15:49.532Z,616.00
2023-03-24T10:16:49.679Z,828.00
2023-03-24T10:17:49.547Z,1116.00
2023-03-24T10:18:49.457Z,676.00
2023-03-24T10:19:49.515Z,700.00
2023-03-24T10:20:49.407Z,1604.00
2023-03-24T10:21:49.716Z,768.00
2023-03-24T10:22:49.364Z,624.00
2023-03-24T10:23:49.344Z,676.00
2023-03-24T10:24:49.314Z,916.00
2023-03-24T10:25:49.434Z,620.00
2023-03-24T10:26:49.265Z,700.00
2023-03-24T10:27:49.268Z,1512.00
2023-03-24T10:28:49.221Z,544.00
2023-03-24T10:29:49.222Z,384.00
2023-03-24T10:30:49.581Z,468.00
2023-03-24T10:31:49.186Z,572.00
2023-03-24T10:32:49.190Z,1312.00
2023-03-24T10:33:49.102Z,1044.00
2023-03-24T10:34:49.082Z,1736.00
2023-03-24T10:35:49.228Z,1648.00
2023-03-24T10:36:49.042Z,1188.00
2023-03-24T10:37:49.009Z,1956.00
2023-03-24T10:38:48.998Z,784.00
2023-03-24T10:39:48.967Z,708.00
2023-03-24T10:40:48.951Z,508.00
2023-03-24T10:41:48.929Z,316.00
2023-03-24T10:42:48.905Z,268.00
2023-03-24T10:43:48.913Z,268.00
2023-03-24T10:44:48.855Z,232.00
2023-03-24T10:45:49.089Z,208.00
2023-03-24T10:46:48.814Z,192.00
2023-03-24T10:47:48.820Z,188.00
2023-03-24T10:48:48.768Z,228.00
2023-03-24T10:49:48.738Z,288.00
2023-03-24T10:50:48.723Z,300.00
2023-03-24T10:51:48.735Z,268.00
2023-03-24T10:52:48.828Z,252.00
2023-03-24T10:53:48.680Z,244.00
2023-03-24T10:54:48.628Z,212.00
2023-03-24T10:55:49.103Z,212.00
2023-03-24T10:56:48.642Z,196.00
2023-03-24T10:57:48.559Z,184.00
2023-03-24T10:58:48.536Z,188.00
2023-03-24T10:59:48.534Z,176.00
2023-03-24T11:00:48.514Z,188.00
2023-03-24T11:01:48.585Z,164.00
2023-03-24T11:02:48.506Z,164.00
2023-03-24T11:03:48.418Z,164.00
2023-03-24T11:04:48.410Z,220.00
2023-03-24T11:05:48.519Z,256.00
2023-03-24T11:06:48.350Z,268.00
2023-03-24T11:07:48.324Z,240.00
2023-03-24T11:08:48.310Z,196.00
2023-03-24T11:09:48.281Z,180.00
2023-03-24T11:10:48.255Z,172.00
2023-03-24T11:11:48.301Z,172.00
2023-03-24T11:12:48.210Z,172.00
2023-03-24T11:13:48.186Z,172.00
2023-03-24T11:14:48.175Z,164.00
2023-03-24T11:15:48.351Z,164.00
2023-03-24T11:16:48.171Z,176.00
2023-03-24T11:17:48.133Z,176.00
2023-03-24T11:18:48.073Z,184.00
2023-03-24T11:19:48.047Z,192.00
2023-03-24T11:20:48.032Z,192.00
2023-03-24T11:21:48.003Z,184.00
2023-03-24T11:22:47.979Z,192.00
2023-03-24T11:23:47.955Z,200.00
2023-03-24T11:24:47.932Z,216.00
2023-03-24T11:25:48.176Z,248.00
2023-03-24T11:26:47.891Z,252.00
2023-03-24T11:27:47.872Z,208.00
2023-03-24T11:28:47.840Z,188.00
2023-03-24T11:29:47.817Z,184.00
2023-03-24T11:30:47.808Z,192.00
2023-03-24T11:31:47.802Z,216.00
2023-03-24T11:32:47.783Z,248.00
2023-03-24T11:33:47.721Z,244.00
2023-03-24T11:34:47.703Z,248.00
2023-03-24T11:36:47.812Z,324.00
2023-03-24T11:37:47.640Z,336.00
2023-03-24T11:38:47.624Z,300.00
2023-03-24T11:39:47.595Z,316.00
2023-03-24T11:40:47.563Z,320.00
2023-03-24T11:41:47.538Z,392.00
2023-03-24T11:42:47.515Z,492.00
2023-03-24T11:43:47.492Z,540.00
2023-03-24T11:44:47.471Z,580.00
2023-03-24T11:45:47.663Z,724.00
2023-03-24T11:46:47.529Z,684.00
2023-03-24T11:47:47.444Z,524.00
2023-03-24T11:48:47.379Z,412.00
2023-03-24T11:49:47.353Z,400.00
2023-03-24T11:50:47.340Z,364.00
2023-03-24T11:51:47.314Z,412.00
2023-03-24T11:52:47.284Z,332.00
2023-03-24T11:53:47.265Z,348.00
2023-03-24T11:54:47.244Z,300.00
2023-03-24T11:55:47.342Z,244.00
2023-03-24T11:56:47.231Z,196.00
2023-03-24T11:57:47.185Z,160.00
2023-03-24T11:58:47.153Z,148.00
2023-03-24T11:59:47.159Z,144.00
2023-03-24T12:00:47.184Z,180.00
2023-03-24T12:01:47.102Z,220.00
2023-03-24T12:02:47.123Z,396.00
2023-03-24T12:03:47.172Z,468.00
2023-03-24T12:04:47.133Z,680.00
2023-03-24T12:05:49.564Z,584.00
2023-03-24T12:06:47.026Z,572.00
2023-03-24T12:07:46.974Z,460.00
2023-03-24T12:08:47.007Z,456.00
2023-03-24T12:09:46.952Z,404.00
2023-03-24T12:10:46.931Z,396.00
2023-03-24T12:11:46.911Z,340.00
2023-03-24T12:12:46.864Z,332.00
2023-03-24T12:13:46.862Z,304.00
2023-03-24T12:14:46.808Z,296.00
2023-03-24T12:15:47.093Z,296.00
2023-03-24T12:16:46.875Z,300.00
2023-03-24T12:17:46.808Z,312.00
2023-03-24T12:18:46.763Z,296.00
2023-03-24T12:19:46.716Z,300.00
2023-03-24T12:20:46.645Z,248.00
2023-03-24T12:21:46.743Z,280.00
2023-03-24T12:22:46.666Z,444.00
2023-03-24T12:23:46.689Z,456.00
2023-03-24T12:24:46.561Z,432.00
2023-03-24T12:25:46.609Z,452.00
2023-03-24T12:26:46.551Z,420.00
2023-03-24T12:27:46.546Z,364.00
2023-03-24T12:28:46.494Z,364.00
2023-03-24T12:29:46.490Z,404.00
2023-03-24T12:30:46.553Z,320.00
2023-03-24T12:31:46.853Z,324.00
2023-03-24T12:32:46.391Z,352.00
2023-03-24T12:33:46.426Z,372.00
2023-03-24T12:34:46.348Z,352.00
2023-03-24T12:35:46.429Z,272.00
2023-03-24T12:36:46.343Z,232.00
2023-03-24T12:37:46.292Z,244.00
2023-03-24T12:38:46.244Z,296.00
2023-03-24T12:39:46.233Z,260.00
2023-03-24T12:40:46.214Z,304.00
2023-03-24T12:41:46.221Z,332.00
2023-03-24T12:42:46.152Z,364.00
2023-03-24T12:43:46.150Z,356.00
2023-03-24T12:44:46.097Z,388.00
2023-03-24T12:45:46.189Z,320.00
2023-03-24T12:46:48.187Z,300.00
2023-03-24T12:47:46.054Z,316.00
2023-03-24T12:48:46.066Z,340.00
2023-03-24T12:49:45.996Z,304.00
2023-03-24T12:50:45.978Z,268.00
2023-03-24T12:51:46.010Z,240.00